Connexion S'enregistrer

Connexion à votre compte

Identifiant
Mot de passe
Maintenir la connexion active sur ce site

Créer un compte

Pour valider ce formulaire, vous devez remplir tous les champs.
Nom
Identifiant
Mot de passe
Répétez le mot de passe
Adresse e-mail
Répétez l'adresse e-mail

Nous contacter

 Téléphone : +33 (0)4 79 54 41 81

Coordonnées détaillées et accès : cliquez ici

 
LFLB °C
    Ferienhaus Ostsee
[source: ADDS]
METAR
LFLB 220500Z AUTO VRB03KT CAVOK 10/09 Q1024 NOSIG =
TAF LFLB 212300Z 2200/2224 VRB02KT CAVOK PROB40 TEMPO 2200/2207 BKN020 PROB30 TEMPO 2200/2202 4000 -DZ BR BKN012 TEMPO 2206/2215 36010KT
TAF
TAF LFLB 212300Z 2200/2224 VRB02KT CAVOK PROB40 TEMPO 2200/2207 BKN020 PROB30 TEMPO 2200/2202 4000 -DZ BR BKN012 TEMPO 2206/2215 36010KT =
SR / SS: 05:23 / 17:35 UTC (Lever/Coucher du soleil le 2018-09-22)
JSN Boot template designed by JoomlaShine.com